Time,TemperatureF,DewpointF,PressureIn,WindDirection,WindDirectionDegrees,WindSpeedMPH,WindSpeedGustMPH,Humidity,HourlyPrecipIn,Conditions,Clouds,dailyrainin,SoftwareType,DateUTC
2013-02-23 00:00:00,34.7,30.1,30.27,ESE,108,3.0,5.0,83,0.00,CLR,,0.00,WeatherDisplay:10.37,2013-02-23 05:00:00,
2013-02-23 00:06:00,34.7,30.1,30.27,East,94,2.3,2.3,83,0.00,OVC,,0.00,WeatherDisplay:10.37,2013-02-23 05:06:00,
2013-02-23 00:07:00,34.7,30.1,30.27,East,94,2.3,2.3,83,0.00,OVC,,0.00,WeatherDisplay:10.37,2013-02-23 05:07:00,
2013-02-23 00:12:00,34.7,30.1,30.27,ESE,111,5.0,5.0,83,0.00,OVC,,0.00,WeatherDisplay:10.37,2013-02-23 05:12:00,
2013-02-23 00:17:00,34.7,30.1,30.27,SE,136,5.8,5.8,83,0.00,OVC,,0.00,WeatherDisplay:10.37,2013-02-23 05:17:00,
2013-02-23 00:22:00,34.6,30.0,30.27,East,82,3.5,3.5,83,0.00,OVC,,0.00,WeatherDisplay:10.37,2013-02-23 05:22:00,
2013-02-23 00:27:00,34.6,30.3,30.27,ESE,116,4.6,4.6,84,0.00,OVC,,0.00,WeatherDisplay:10.37,2013-02-23 05:27:00,
2013-02-23 00:32:00,34.6,30.3,30.27,ESE,115,5.0,5.0,84,0.00,OVC,,0.00,WeatherDisplay:10.37,2013-02-23 05:32:00,
2013-02-23 00:37:00,34.5,30.2,30.27,East,90,5.0,5.0,84,0.00,OVC,,0.00,WeatherDisplay:10.37,2013-02-23 05:37:00,
2013-02-23 00:42:00,34.6,30.3,30.27,East,84,3.5,3.5,84,0.00,OVC,,0.00,WeatherDisplay:10.37,2013-02-23 05:42:00,
2013-02-23 00:47:00,34.6,30.3,30.28,East,84,0.0,0.0,84,0.00,OVC,,0.00,WeatherDisplay:10.37,2013-02-23 05:47:00,
2013-02-23 00:52:00,34.7,30.4,30.28,East,84,2.3,2.3,84,0.00,OVC,,0.00,WeatherDisplay:10.37,2013-02-23 05:52:00,
2013-02-23 00:57:00,34.7,30.4,30.28,SW,225,1.2,1.2,84,0.00,OVC,,0.00,WeatherDisplay:10.37,2013-02-23 05:57:00,
2013-02-23 01:02:00,34.7,30.4,30.28,SW,225,0.0,0.0,84,0.00,OVC,,0.00,WeatherDisplay:10.37,2013-02-23 06:02:00,
2013-02-23 01:07:00,34.7,30.4,30.28,SE,128,3.5,3.5,84,0.00,OVC,,0.00,WeatherDisplay:10.37,2013-02-23 06:07:00,
2013-02-23 01:12:00,34.8,30.5,30.27,SW,227,2.3,2.3,84,0.00,OVC,,0.00,WeatherDisplay:10.37,2013-02-23 06:12:00,
2013-02-23 01:17:00,34.7,30.4,30.27,SW,227,0.0,0.0,84,0.00,OVC,,0.00,WeatherDisplay:10.37,2013-02-23 06:17:00,
2013-02-23 01:22:00,34.8,30.5,30.27,SW,227,0.0,0.0,84,0.00,OVC,,0.00,WeatherDisplay:10.37,2013-02-23 06:22:00,
2013-02-23 01:27:00,34.8,30.5,30.27,ESE,109,2.3,2.3,84,0.00,OVC,,0.00,WeatherDisplay:10.37,2013-02-23 06:27:00,
2013-02-23 01:32:00,34.8,30.5,30.27,South,189,2.3,2.3,84,0.00,OVC,,0.00,WeatherDisplay:10.37,2013-02-23 06:32:00,
2013-02-23 01:37:00,34.8,30.8,30.27,South,189,1.0,1.0,85,0.00,OVC,,0.00,WeatherDisplay:10.37,2013-02-23 06:37:00,
2013-02-23 01:42:00,34.7,30.7,30.26,South,189,3.5,3.5,85,0.00,OVC,,0.00,WeatherDisplay:10.37,2013-02-23 06:42:00,
2013-02-23 01:47:00,34.7,30.7,30.26,South,189,0.0,0.0,85,0.00,OVC,,0.00,WeatherDisplay:10.37,2013-02-23 06:47:00,
2013-02-23 01:52:00,34.6,30.6,30.26,South,178,3.5,3.5,85,0.00,OVC,,0.00,WeatherDisplay:10.37,2013-02-23 06:52:00,
2013-02-23 01:57:00,34.7,30.7,30.25,East,91,1.0,1.0,85,0.00,OVC,,0.00,WeatherDisplay:10.37,2013-02-23 06:57:00,
2013-02-23 02:02:00,34.6,30.6,30.25,East,91,3.5,3.5,85,0.00,OVC,,0.00,WeatherDisplay:10.37,2013-02-23 07:02:00,
2013-02-23 02:07:00,34.7,30.7,30.25,East,91,3.5,3.5,85,0.00,OVC,,0.00,WeatherDisplay:10.37,2013-02-23 07:07:00,
2013-02-23 02:12:00,34.7,30.7,30.25,SE,145,1.2,1.2,85,0.00,OVC,,0.00,WeatherDisplay:10.37,2013-02-23 07:12:00,
2013-02-23 02:17:00,34.7,30.7,30.25,SE,142,2.3,2.3,85,0.00,OVC,,0.00,WeatherDisplay:10.37,2013-02-23 07:17:00,
2013-02-23 02:22:00,34.8,30.8,30.25,ESE,111,0.0,0.0,85,0.00,OVC,,0.00,WeatherDisplay:10.37,2013-02-23 07:22:00,
2013-02-23 02:27:00,34.8,30.8,30.24,ESE,111,2.3,2.3,85,0.00,OVC,,0.00,WeatherDisplay:10.37,2013-02-23 07:27:00,
2013-02-23 02:32:00,34.8,30.8,30.24,East,94,0.0,0.0,85,0.00,OVC,,0.00,WeatherDisplay:10.37,2013-02-23 07:32:00,
2013-02-23 02:37:00,34.9,30.8,30.23,East,94,3.5,3.5,85,0.00,OVC,,0.00,WeatherDisplay:10.37,2013-02-23 07:37:00,
2013-02-23 02:42:00,34.9,30.8,30.23,East,90,2.3,2.3,85,0.00,OVC,,0.00,WeatherDisplay:10.37,2013-02-23 07:42:00,
2013-02-23 02:47:00,34.9,30.8,30.23,ESE,105,3.5,3.5,85,0.00,OVC,,0.00,WeatherDisplay:10.37,2013-02-23 07:47:00,
2013-02-23 02:52:00,34.8,30.8,30.22,East,80,3.5,0.0,85,0.00,OVC,,0.00,WeatherDisplay:10.37,2013-02-23 07:52:00,
2013-02-23 02:57:00,34.8,30.8,30.22,East,80,3.5,3.5,85,0.00,OVC,,0.00,WeatherDisplay:10.37,2013-02-23 07:57:00,
2013-02-23 03:02:00,34.8,30.8,30.22,East,80,2.3,2.3,85,0.00,OVC,,0.00,WeatherDisplay:10.37,2013-02-23 08:02:00,
2013-02-23 03:07:00,34.8,30.8,30.22,East,80,0.0,0.0,85,0.00,OVC,,0.00,WeatherDisplay:10.37,2013-02-23 08:07:00,
2013-02-23 03:12:00,34.7,30.9,30.21,ESE,109,3.5,3.5,86,0.00,OVC,,0.00,WeatherDisplay:10.37,2013-02-23 08:12:00,
2013-02-23 03:17:00,34.5,30.7,30.21,SE,130,6.0,6.0,86,0.00,OVC,,0.00,WeatherDisplay:10.37,2013-02-23 08:17:00,
2013-02-23 03:22:00,34.4,30.6,30.21,East,95,3.5,3.5,86,0.00,OVC,,0.00,WeatherDisplay:10.37,2013-02-23 08:22:00,
2013-02-23 03:27:00,34.4,30.9,30.21,East,95,2.3,2.3,87,0.00,OVC,,0.00,WeatherDisplay:10.37,2013-02-23 08:27:00,
2013-02-23 03:32:00,34.4,30.9,30.21,East,94,3.5,3.5,87,0.00,OVC,,0.00,WeatherDisplay:10.37,2013-02-23 08:32:00,
2013-02-23 03:37:00,34.4,30.9,30.21,SE,128,4.0,4.0,87,0.00,OVC,,0.00,WeatherDisplay:10.37,2013-02-23 08:37:00,
2013-02-23 03:42:00,34.4,30.9,30.21,ESE,111,3.5,3.5,87,0.00,OVC,,0.00,WeatherDisplay:10.37,2013-02-23 08:42:00,
2013-02-23 03:47:00,34.4,31.2,30.21,ESE,102,3.5,3.5,88,0.00,OVC,,0.00,WeatherDisplay:10.37,2013-02-23 08:47:00,
2013-02-23 03:52:00,34.4,31.2,30.20,ESE,102,0.0,0.0,88,0.00,OVC,,0.00,WeatherDisplay:10.37,2013-02-23 08:52:00,
2013-02-23 03:57:00,34.4,31.2,30.21,SSE,150,2.3,2.3,88,0.00,OVC,,0.00,WeatherDisplay:10.37,2013-02-23 08:57:00,
2013-02-23 04:03:00,34.4,31.2,30.21,ESE,119,4.0,4.0,88,0.00,OVC,,0.00,WeatherDisplay:10.37,2013-02-23 09:03:00,
2013-02-23 04:08:00,34.4,31.2,30.21,ESE,111,3.5,3.5,88,0.00,OVC,,0.00,WeatherDisplay:10.37,2013-02-23 09:08:00,
2013-02-23 04:13:00,34.4,31.2,30.21,ESE,122,4.6,0.0,88,0.00,OVC,,0.00,WeatherDisplay:10.37,2013-02-23 09:13:00,
2013-02-23 04:18:00,34.4,31.2,30.20,ESE,122,3.5,3.5,88,0.00,OVC,,0.00,WeatherDisplay:10.37,2013-02-23 09:18:00,
2013-02-23 04:23:00,34.4,31.2,30.20,ESE,121,2.0,2.0,88,0.00,OVC,,0.00,WeatherDisplay:10.37,2013-02-23 09:23:00,
2013-02-23 04:28:00,34.4,31.2,30.20,SE,124,4.6,4.6,88,0.00,OVC,,0.00,WeatherDisplay:10.37,2013-02-23 09:28:00,
2013-02-23 04:33:00,34.4,31.2,30.20,ESE,107,4.0,4.0,88,0.00,OVC,,0.00,WeatherDisplay:10.37,2013-02-23 09:33:00,
2013-02-23 04:38:00,34.4,31.2,30.20,ENE,71,5.8,5.8,88,0.00,OVC,,0.00,WeatherDisplay:10.37,2013-02-23 09:38:00,
2013-02-23 04:43:00,34.4,31.2,30.20,ESE,108,2.3,2.3,88,0.00,OVC,,0.00,WeatherDisplay:10.37,2013-02-23 09:43:00,
2013-02-23 04:48:00,34.4,31.2,30.19,SE,128,4.0,4.1,88,0.00,OVC,,0.00,WeatherDisplay:10.37,2013-02-23 09:48:00,
2013-02-23 04:53:00,34.4,31.5,30.19,East,90,2.3,2.3,89,0.00,OVC,,0.00,WeatherDisplay:10.37,2013-02-23 09:53:00,
2013-02-23 04:58:00,34.4,31.2,30.19,East,82,5.0,5.0,88,0.00,OVC,,0.00,WeatherDisplay:10.37,2013-02-23 09:58:00,
2013-02-23 05:03:00,34.4,31.2,30.19,SE,140,8.1,8.1,88,0.00,OVC,,0.00,WeatherDisplay:10.37,2013-02-23 10:03:00,
2013-02-23 05:08:00,34.4,31.5,30.19,East,91,3.5,3.5,89,0.00,OVC,,0.00,WeatherDisplay:10.37,2013-02-23 10:08:00,
2013-02-23 05:13:00,34.4,31.5,30.19,SE,136,5.8,5.8,89,0.00,OVC,,0.00,WeatherDisplay:10.37,2013-02-23 10:13:00,
2013-02-23 05:18:00,34.4,31.5,30.19,East,94,1.2,0.0,89,0.00,OVC,,0.00,WeatherDisplay:10.37,2013-02-23 10:18:00,
2013-02-23 05:23:00,34.4,31.5,30.18,East,89,3.5,3.5,89,0.00,OVC,,0.00,WeatherDisplay:10.37,2013-02-23 10:23:00,
2013-02-23 05:28:00,34.4,31.5,30.18,ENE,61,6.9,6.9,89,0.00,OVC,,0.00,WeatherDisplay:10.37,2013-02-23 10:28:00,
2013-02-23 05:33:00,34.4,31.5,30.18,ESE,110,2.3,2.3,89,0.00,OVC,,0.00,WeatherDisplay:10.37,2013-02-23 10:33:00,
2013-02-23 05:38:00,34.4,31.8,30.18,ENE,78,3.5,3.5,90,0.00,OVC,,0.00,WeatherDisplay:10.37,2013-02-23 10:38:00,
2013-02-23 05:43:00,34.4,31.8,30.18,SSE,158,3.5,3.5,90,0.00,OVC,,0.00,WeatherDisplay:10.37,2013-02-23 10:43:00,
2013-02-23 05:48:00,34.4,31.8,30.18,ESE,103,3.5,3.5,90,0.00,OVC,,0.00,WeatherDisplay:10.37,2013-02-23 10:48:00,
2013-02-23 05:53:00,34.3,31.9,30.18,ESE,113,4.6,4.6,91,0.00,OVC,,0.00,WeatherDisplay:10.37,2013-02-23 10:53:00,
2013-02-23 05:58:00,34.3,31.9,30.18,East,91,5.8,5.8,91,0.00,OVC,,0.00,WeatherDisplay:10.37,2013-02-23 10:58:00,
2013-02-23 06:03:00,34.2,31.8,30.18,East,95,3.5,3.5,91,0.00,OVC,,0.00,WeatherDisplay:10.37,2013-02-23 11:03:00,
2013-02-23 06:08:00,34.2,31.8,30.17,East,95,0.0,0.0,91,0.00,OVC,,0.00,WeatherDisplay:10.37,2013-02-23 11:08:00,
2013-02-23 06:13:00,34.2,31.8,30.17,ENE,78,2.3,2.3,91,0.00,OVC,,0.00,WeatherDisplay:10.37,2013-02-23 11:13:00,
2013-02-23 06:18:00,34.4,32.0,30.17,ESE,111,5.0,5.0,91,0.00,OVC,,0.00,WeatherDisplay:10.37,2013-02-23 11:18:00,
2013-02-23 06:23:00,34.4,32.0,30.18,ESE,110,3.5,3.5,91,0.00,OVC,,0.00,WeatherDisplay:10.37,2013-02-23 11:23:00,
2013-02-23 06:28:00,34.4,32.3,30.17,SE,142,4.0,4.0,92,0.00,OVC,,0.00,WeatherDisplay:10.37,2013-02-23 11:28:00,
2013-02-23 06:33:00,34.4,32.3,30.17,East,82,3.5,0.0,92,0.00,OVC,,0.00,WeatherDisplay:10.37,2013-02-23 11:33:00,
2013-02-23 06:38:00,34.4,32.3,30.17,East,97,4.0,4.0,92,0.00,OVC,,0.00,WeatherDisplay:10.37,2013-02-23 11:38:00,
2013-02-23 06:43:00,34.4,32.3,30.17,ENE,70,4.6,4.6,92,0.00,OVC,,0.00,WeatherDisplay:10.37,2013-02-23 11:43:00,
2013-02-23 06:48:00,34.4,32.3,30.17,East,92,6.0,6.0,92,0.00,OVC,,0.00,WeatherDisplay:10.37,2013-02-23 11:48:00,
2013-02-23 06:53:00,34.4,32.3,30.17,ESE,121,5.8,5.8,92,0.00,OVC,,0.00,WeatherDisplay:10.37,2013-02-23 11:53:00,
2013-02-23 06:58:00,34.4,32.3,30.17,ESE,114,5.8,5.8,92,0.00,OVC,,0.00,WeatherDisplay:10.37,2013-02-23 11:58:00,
2013-02-23 07:03:00,34.4,32.3,30.17,ESE,117,5.8,5.8,92,0.00,OVC,,0.00,WeatherDisplay:10.37,2013-02-23 12:03:00,
2013-02-23 07:08:00,34.4,32.6,30.17,ESE,119,4.0,4.0,93,0.00,OVC,,0.00,WeatherDisplay:10.37,2013-02-23 12:08:00,
2013-02-23 07:13:00,34.4,32.6,30.17,ENE,63,2.3,0.0,93,0.00,OVC,,0.00,WeatherDisplay:10.37,2013-02-23 12:13:00,
2013-02-23 07:18:00,34.4,32.6,30.17,ESE,111,5.8,5.8,93,0.00,OVC,,0.00,WeatherDisplay:10.37,2013-02-23 12:18:00,
2013-02-23 07:23:00,34.4,32.6,30.16,ESE,102,5.0,5.1,93,0.00,OVC,,0.00,WeatherDisplay:10.37,2013-02-23 12:23:00,
2013-02-23 07:28:00,34.4,32.6,30.16,ENE,70,3.5,3.5,93,0.00,OVC,,0.00,WeatherDisplay:10.37,2013-02-23 12:28:00,
2013-02-23 07:33:00,34.4,32.6,30.16,East,79,5.0,5.0,93,0.00,OVC,,0.00,WeatherDisplay:10.37,2013-02-23 12:33:00,
2013-02-23 07:38:00,34.4,32.6,30.16,East,99,0.0,0.0,93,0.00,OVC,,0.00,WeatherDisplay:10.37,2013-02-23 12:38:00,
2013-02-23 07:43:00,34.5,32.7,30.16,East,99,4.0,4.0,93,0.00,OVC,,0.00,WeatherDisplay:10.37,2013-02-23 12:43:00,
2013-02-23 07:48:00,34.6,32.8,30.16,SE,140,4.0,4.0,93,0.00,OVC,,0.00,WeatherDisplay:10.37,2013-02-23 12:48:00,
2013-02-23 07:53:00,34.6,32.8,30.16,ESE,114,6.9,6.9,93,0.00,OVC,,0.00,WeatherDisplay:10.37,2013-02-23 12:53:00,
2013-02-23 07:58:00,34.6,32.8,30.16,ENE,70,6.9,6.9,93,0.00,OVC,,0.00,WeatherDisplay:10.37,2013-02-23 12:58:00,
2013-02-23 08:03:00,34.7,32.9,30.16,ESE,106,3.5,3.5,93,0.00,OVC,,0.00,WeatherDisplay:10.37,2013-02-23 13:03:00,
2013-02-23 08:08:00,34.7,32.9,30.16,ESE,119,8.1,8.1,93,0.00,OVC,,0.00,WeatherDisplay:10.37,2013-02-23 13:08:00,
2013-02-23 08:13:00,34.8,33.0,30.15,SE,130,4.0,4.0,93,0.00,OVC,,0.00,WeatherDisplay:10.37,2013-02-23 13:13:00,
2013-02-23 08:18:00,34.8,33.0,30.15,SSE,155,4.6,4.6,93,0.00,OVC,,0.00,WeatherDisplay:10.37,2013-02-23 13:18:00,
2013-02-23 08:23:00,34.9,33.1,30.14,ESE,102,5.8,5.8,93,0.00,OVC,,0.00,WeatherDisplay:10.37,2013-02-23 13:23:00,
2013-02-23 08:28:00,35.0,33.2,30.14,ESE,106,4.6,4.6,93,0.00,OVC,,0.00,WeatherDisplay:10.37,2013-02-23 13:28:00,
2013-02-23 08:33:00,35.1,33.3,30.14,ESE,109,4.6,4.6,93,0.00,OVC,,0.00,WeatherDisplay:10.37,2013-02-23 13:33:00,
2013-02-23 08:38:00,35.2,33.4,30.14,East,90,4.6,4.6,93,0.00,OVC,,0.00,WeatherDisplay:10.37,2013-02-23 13:38:00,
2013-02-23 08:43:00,35.3,33.5,30.14,ESE,106,6.9,6.9,93,0.00,OVC,,0.00,WeatherDisplay:10.37,2013-02-23 13:43:00,
2013-02-23 08:48:00,35.4,33.6,30.14,ESE,118,4.6,4.6,93,0.00,OVC,,0.00,WeatherDisplay:10.37,2013-02-23 13:48:00,
2013-02-23 08:53:00,35.5,33.7,30.14,ESE,111,6.9,6.9,93,0.00,OVC,,0.00,WeatherDisplay:10.37,2013-02-23 13:53:00,
2013-02-23 08:58:00,35.6,33.8,30.14,East,80,4.6,4.6,93,0.00,OVC,,0.00,WeatherDisplay:10.37,2013-02-23 13:58:00,
2013-02-23 09:03:00,35.6,33.8,30.14,East,95,9.2,9.2,93,0.00,OVC,,0.00,WeatherDisplay:10.37,2013-02-23 14:03:00,
2013-02-23 09:08:00,35.7,33.9,30.14,SE,133,4.6,4.6,93,0.00,OVC,,0.00,WeatherDisplay:10.37,2013-02-23 14:08:00,
2013-02-23 09:13:00,35.8,34.0,30.13,East,88,6.9,6.9,93,0.00,OVC,,0.00,WeatherDisplay:10.37,2013-02-23 14:13:00,
2013-02-23 09:18:00,35.8,34.0,30.13,ESE,117,5.0,5.0,93,0.00,OVC,,0.00,WeatherDisplay:10.37,2013-02-23 14:18:00,
2013-02-23 09:23:00,35.9,34.1,30.13,ESE,112,3.5,3.5,93,0.00,OVC,,0.00,WeatherDisplay:10.37,2013-02-23 14:23:00,
2013-02-23 09:28:00,36.0,34.2,30.13,ESE,111,6.9,6.9,93,0.00,OVC,,0.00,WeatherDisplay:10.37,2013-02-23 14:28:00,
2013-02-23 09:33:00,36.1,34.3,30.12,ESE,116,4.6,4.6,93,0.00,OVC,,0.00,WeatherDisplay:10.37,2013-02-23 14:33:00,
2013-02-23 09:38:00,36.2,34.4,30.12,East,91,5.8,5.8,93,0.00,OVC,,0.00,WeatherDisplay:10.37,2013-02-23 14:38:00,
2013-02-23 09:43:00,36.2,34.4,30.12,East,83,1.2,0.0,93,0.00,OVC,,0.00,WeatherDisplay:10.37,2013-02-23 14:43:00,
2013-02-23 09:48:00,36.4,34.6,30.11,East,101,7.0,7.0,93,0.00,OVC,,0.00,WeatherDisplay:10.37,2013-02-23 14:48:00,
2013-02-23 09:53:00,36.5,34.7,30.11,SE,126,5.8,5.8,93,0.00,OVC,,0.00,WeatherDisplay:10.37,2013-02-23 14:53:00,
2013-02-23 09:58:00,36.4,34.6,30.11,ESE,118,4.6,4.6,93,0.00,OVC,,0.00,WeatherDisplay:10.37,2013-02-23 14:58:00,
2013-02-23 10:03:00,36.5,34.7,30.10,SE,129,5.0,5.0,93,0.00,OVC,,0.00,WeatherDisplay:10.37,2013-02-23 15:03:00,
2013-02-23 10:08:00,36.6,35.0,30.10,East,90,6.0,6.0,94,0.00,OVC,,0.00,WeatherDisplay:10.37,2013-02-23 15:08:00,
2013-02-23 10:13:00,36.7,35.1,30.09,East,98,5.8,5.8,94,0.00,OVC,,0.00,WeatherDisplay:10.37,2013-02-23 15:13:00,
2013-02-23 10:18:00,36.8,35.2,30.10,ESE,105,5.8,5.8,94,0.00,OVC,,0.00,WeatherDisplay:10.37,2013-02-23 15:18:00,
2013-02-23 10:23:00,36.9,35.3,30.09,ENE,78,3.5,3.5,94,0.00,OVC,,0.00,WeatherDisplay:10.37,2013-02-23 15:23:00,
2013-02-23 10:28:00,37.0,35.4,30.09,SE,137,4.6,4.6,94,0.00,OVC,,0.00,WeatherDisplay:10.37,2013-02-23 15:28:00,
2013-02-23 10:33:00,37.1,35.5,30.09,East,86,4.6,4.6,94,0.00,OVC,,0.00,WeatherDisplay:10.37,2013-02-23 15:33:00,
2013-02-23 10:38:00,37.2,35.6,30.09,SE,126,1.2,2.7,94,0.00,OVC,,0.00,WeatherDisplay:10.37,2013-02-23 15:38:00,
2013-02-23 10:43:00,37.2,35.6,30.09,East,100,6.0,6.0,94,0.00,OVC,,0.00,WeatherDisplay:10.37,2013-02-23 15:43:00,
2013-02-23 10:48:00,37.3,35.7,30.09,East,98,2.3,2.9,94,0.00,OVC,,0.00,WeatherDisplay:10.37,2013-02-23 15:48:00,
2013-02-23 10:53:00,37.4,35.8,30.09,East,98,2.0,2.0,94,0.00,OVC,,0.00,WeatherDisplay:10.37,2013-02-23 15:53:00,
2013-02-23 10:58:00,37.5,35.9,30.09,East,98,2.3,0.0,94,0.00,OVC,,0.00,WeatherDisplay:10.37,2013-02-23 15:58:00,
2013-02-23 11:03:00,37.5,35.9,30.09,ESE,115,4.6,0.0,94,0.00,OVC,,0.00,WeatherDisplay:10.37,2013-02-23 16:03:00,
2013-02-23 11:08:00,37.5,35.9,30.09,ESE,122,3.5,3.5,94,0.00,OVC,,0.00,WeatherDisplay:10.37,2013-02-23 16:08:00,
2013-02-23 11:13:00,37.6,36.0,30.08,ESE,115,4.0,4.0,94,0.00,OVC,,0.00,WeatherDisplay:10.37,2013-02-23 16:13:00,
2013-02-23 11:18:00,37.6,36.0,30.08,ESE,113,3.5,3.5,94,0.00,OVC,,0.00,WeatherDisplay:10.37,2013-02-23 16:18:00,
2013-02-23 11:23:00,37.7,36.4,30.08,ENE,77,2.0,2.0,95,0.00,OVC,,0.00,WeatherDisplay:10.37,2013-02-23 16:23:00,
2013-02-23 11:28:00,37.8,36.5,30.08,East,101,4.6,4.6,95,0.00,OVC,,0.00,WeatherDisplay:10.37,2013-02-23 16:28:00,
2013-02-23 11:33:00,37.9,36.6,30.07,ESE,117,6.0,6.0,95,0.00,OVC,,0.00,WeatherDisplay:10.37,2013-02-23 16:33:00,
2013-02-23 11:38:00,38.0,36.7,30.07,SSE,160,3.5,3.5,95,0.00,OVC,,0.00,WeatherDisplay:10.37,2013-02-23 16:38:00,
2013-02-23 11:43:00,38.2,36.9,30.07,SE,144,2.3,0.0,95,0.00,OVC,,0.00,WeatherDisplay:10.37,2013-02-23 16:43:00,
2013-02-23 11:48:00,38.2,36.9,30.07,East,100,5.8,5.8,95,0.00,OVC,,0.00,WeatherDisplay:10.37,2013-02-23 16:48:00,
2013-02-23 11:53:00,38.3,37.0,30.06,East,87,3.5,3.5,95,0.00,OVC,,0.00,WeatherDisplay:10.37,2013-02-23 16:53:00,
2013-02-23 11:58:00,38.4,37.4,30.06,East,96,2.3,2.3,96,0.00,OVC,,0.00,WeatherDisplay:10.37,2013-02-23 16:58:00,
2013-02-23 12:03:00,38.6,37.3,30.05,ENE,76,3.5,3.5,95,0.00,OVC,,0.00,WeatherDisplay:10.37,2013-02-23 17:03:00,
2013-02-23 12:08:00,38.7,37.4,30.05,ENE,77,5.0,5.0,95,0.00,OVC,,0.00,WeatherDisplay:10.37,2013-02-23 17:08:00,
2013-02-23 12:13:00,38.7,37.4,30.05,ESE,123,6.9,6.9,95,0.00,OVC,,0.00,WeatherDisplay:10.37,2013-02-23 17:13:00,
2013-02-23 12:18:00,38.7,37.4,30.05,ESE,121,4.6,4.6,95,0.00,OVC,,0.00,WeatherDisplay:10.37,2013-02-23 17:18:00,
2013-02-23 12:23:00,38.7,37.7,30.04,ESE,109,2.3,2.3,96,0.00,OVC,,0.00,WeatherDisplay:10.37,2013-02-23 17:23:00,
2013-02-23 12:28:00,38.8,37.8,30.03,ESE,113,4.0,4.0,96,0.00,OVC,,0.00,WeatherDisplay:10.37,2013-02-23 17:28:00,
2013-02-23 12:33:00,38.9,37.9,30.03,ENE,75,3.5,3.5,96,0.00,OVC,,0.00,WeatherDisplay:10.37,2013-02-23 17:33:00,
2013-02-23 12:38:00,39.1,38.1,30.03,East,88,3.5,3.5,96,0.00,OVC,,0.00,WeatherDisplay:10.37,2013-02-23 17:38:00,
2013-02-23 12:43:00,39.2,38.2,30.03,ESE,122,3.5,3.9,96,0.00,OVC,,0.00,WeatherDisplay:10.37,2013-02-23 17:43:00,
2013-02-23 12:48:00,39.4,38.4,30.03,East,89,3.5,3.5,96,0.00,OVC,,0.00,WeatherDisplay:10.37,2013-02-23 17:48:00,
2013-02-23 12:53:00,39.4,38.4,30.02,SE,124,6.9,6.9,96,0.00,OVC,,0.00,WeatherDisplay:10.37,2013-02-23 17:53:00,
2013-02-23 12:58:00,39.5,38.5,30.02,NE,41,3.0,3.0,96,0.00,OVC,,0.00,WeatherDisplay:10.37,2013-02-23 17:58:00,
2013-02-23 13:03:00,39.6,38.6,30.02,East,86,4.6,4.6,96,0.00,OVC,,0.00,WeatherDisplay:10.37,2013-02-23 18:03:00,
2013-02-23 13:08:00,39.7,38.7,30.02,East,89,3.5,3.5,96,0.00,OVC,,0.00,WeatherDisplay:10.37,2013-02-23 18:08:00,
2013-02-23 13:13:00,39.8,38.8,30.02,ENE,72,7.0,7.0,96,0.00,OVC,,0.00,WeatherDisplay:10.37,2013-02-23 18:13:00,
2013-02-23 13:18:00,39.8,38.8,30.02,ESE,118,4.6,4.6,96,0.00,OVC,,0.00,WeatherDisplay:10.37,2013-02-23 18:18:00,
2013-02-23 13:23:00,39.9,38.9,30.02,NNW,336,2.3,0.0,96,0.00,OVC,,0.00,WeatherDisplay:10.37,2013-02-23 18:23:00,
2013-02-23 13:28:00,40.0,39.0,30.01,ESE,103,1.2,0.0,96,0.00,OVC,,0.00,WeatherDisplay:10.37,2013-02-23 18:28:00,
2013-02-23 13:33:00,40.0,39.0,30.01,East,98,3.5,3.5,96,0.00,OVC,,0.00,WeatherDisplay:10.37,2013-02-23 18:33:00,
2013-02-23 13:38:00,40.0,39.0,30.01,ENE,73,5.8,5.8,96,0.00,OVC,,0.00,WeatherDisplay:10.37,2013-02-23 18:38:00,
2013-02-23 13:43:00,40.0,39.0,30.00,East,84,10.4,10.4,96,0.00,OVC,,0.00,WeatherDisplay:10.37,2013-02-23 18:43:00,
2013-02-23 13:48:00,40.0,39.0,30.00,East,86,6.9,6.9,96,0.00,OVC,,0.00,WeatherDisplay:10.37,2013-02-23 18:48:00,
2013-02-23 13:53:00,40.1,39.1,30.00,NNE,33,4.6,4.6,96,0.00,OVC,,0.00,WeatherDisplay:10.37,2013-02-23 18:53:00,
2013-02-23 13:58:00,40.1,39.1,30.00,ENE,74,6.9,6.9,96,0.00,OVC,,0.00,WeatherDisplay:10.37,2013-02-23 18:58:00,
2013-02-23 14:03:00,40.2,39.2,30.00,East,86,3.5,3.5,96,0.00,OVC,,0.00,WeatherDisplay:10.37,2013-02-23 19:03:00,
2013-02-23 14:08:00,40.3,39.3,30.00,NE,48,5.8,5.8,96,0.00,OVC,,0.00,WeatherDisplay:10.37,2013-02-23 19:08:00,
2013-02-23 14:13:00,40.3,39.3,30.00,East,84,3.5,3.5,96,0.00,OVC,,0.00,WeatherDisplay:10.37,2013-02-23 19:13:00,
2013-02-23 14:18:00,40.2,39.2,29.99,East,96,6.0,6.0,96,0.00,OVC,,0.00,WeatherDisplay:10.37,2013-02-23 19:18:00,
2013-02-23 14:23:00,40.1,39.1,29.99,ENE,74,6.9,6.9,96,0.00,OVC,,0.00,WeatherDisplay:10.37,2013-02-23 19:23:00,
2013-02-23 14:28:00,40.1,39.1,29.99,ENE,78,3.5,3.5,96,0.00,OVC,,0.00,WeatherDisplay:10.37,2013-02-23 19:28:00,
2013-02-23 14:33:00,40.2,39.4,29.99,ENE,59,3.5,3.5,97,0.00,OVC,,0.00,WeatherDisplay:10.37,2013-02-23 19:33:00,
2013-02-23 14:38:00,40.3,39.3,29.99,ENE,66,2.3,2.3,96,0.01,RA,,0.01,WeatherDisplay:10.37,2013-02-23 19:38:00,
2013-02-23 14:43:00,40.2,39.2,29.99,East,81,3.0,3.0,96,0.01,RA,,0.01,WeatherDisplay:10.37,2013-02-23 19:43:00,
2013-02-23 14:48:00,40.2,39.2,29.98,NNE,28,4.6,4.6,96,0.01,OVC,,0.01,WeatherDisplay:10.37,2013-02-23 19:48:00,
2013-02-23 14:53:00,40.1,39.1,29.99,ENE,76,5.8,5.8,96,0.01,OVC,,0.01,WeatherDisplay:10.37,2013-02-23 19:53:00,
2013-02-23 14:58:00,40.1,39.1,29.99,ESE,107,5.0,5.0,96,0.01,OVC,,0.01,WeatherDisplay:10.37,2013-02-23 19:58:00,
2013-02-23 15:03:00,40.0,39.0,29.99,East,101,7.0,7.0,96,0.01,OVC,,0.01,WeatherDisplay:10.37,2013-02-23 20:03:00,
2013-02-23 15:08:00,39.9,38.9,29.99,East,80,6.0,6.0,96,0.01,OVC,,0.01,WeatherDisplay:10.37,2013-02-23 20:08:00,
2013-02-23 15:13:00,39.8,38.8,29.99,East,80,4.6,4.6,96,0.01,OVC,,0.01,WeatherDisplay:10.37,2013-02-23 20:13:00,
2013-02-23 15:18:00,39.9,38.9,29.99,East,90,3.5,3.5,96,0.02,RA,,0.02,WeatherDisplay:10.37,2013-02-23 20:18:00,
2013-02-23 15:23:00,39.8,38.8,29.98,ENE,70,4.6,4.6,96,0.02,RA,,0.02,WeatherDisplay:10.37,2013-02-23 20:23:00,
2013-02-23 15:28:00,39.8,38.8,29.98,ESE,121,6.0,6.0,96,0.02,OVC,,0.02,WeatherDisplay:10.37,2013-02-23 20:28:00,
2013-02-23 15:33:00,39.7,38.7,29.98,ENE,78,3.0,3.0,96,0.02,OVC,,0.02,WeatherDisplay:10.37,2013-02-23 20:33:00,
2013-02-23 15:38:00,39.7,38.9,29.98,East,92,3.5,3.5,97,0.01,OVC,,0.02,WeatherDisplay:10.37,2013-02-23 20:38:00,
2013-02-23 15:43:00,39.7,38.7,29.98,ENE,70,8.1,8.1,96,0.01,OVC,,0.02,WeatherDisplay:10.37,2013-02-23 20:43:00,
2013-02-23 15:48:00,39.5,38.5,29.97,East,101,9.0,9.0,96,0.01,OVC,,0.02,WeatherDisplay:10.37,2013-02-23 20:48:00,
2013-02-23 15:53:00,39.4,38.4,29.97,East,83,3.5,3.5,96,0.01,OVC,,0.02,WeatherDisplay:10.37,2013-02-23 20:53:00,
2013-02-23 15:58:00,39.3,38.3,29.98,East,98,5.8,5.8,96,0.01,OVC,,0.02,WeatherDisplay:10.37,2013-02-23 20:58:00,
2013-02-23 16:03:00,39.1,38.1,29.98,ESE,113,6.9,6.9,96,0.01,-RA,,0.02,WeatherDisplay:10.37,2013-02-23 21:03:00,
2013-02-23 16:08:00,39.1,38.1,29.97,ENE,69,11.5,11.5,96,0.01,-RA,,0.02,WeatherDisplay:10.37,2013-02-23 21:08:00,
2013-02-23 16:13:00,38.9,37.9,29.97,East,92,9.2,9.2,96,0.01,-RA,,0.02,WeatherDisplay:10.37,2013-02-23 21:13:00,
2013-02-23 16:18:00,38.8,37.8,29.97,ENE,64,8.1,8.1,96,0.00,-RA,,0.02,WeatherDisplay:10.37,2013-02-23 21:18:00,
2013-02-23 16:23:00,38.7,37.7,29.98,NE,37,6.9,6.9,96,0.00,-RA,,0.02,WeatherDisplay:10.37,2013-02-23 21:23:00,
2013-02-23 16:28:00,38.6,37.6,29.98,East,82,6.9,6.9,96,0.00,-RA,,0.02,WeatherDisplay:10.37,2013-02-23 21:28:00,
2013-02-23 16:33:00,38.5,37.5,29.98,East,93,6.9,6.9,96,0.00,-RA,,0.02,WeatherDisplay:10.37,2013-02-23 21:33:00,
2013-02-23 16:38:00,38.4,37.4,29.97,East,93,11.5,11.5,96,0.00,-RA,,0.02,WeatherDisplay:10.37,2013-02-23 21:38:00,
2013-02-23 16:43:00,38.3,37.3,29.97,ENE,70,8.1,8.1,96,0.00,-RA,,0.02,WeatherDisplay:10.37,2013-02-23 21:43:00,
2013-02-23 16:48:00,38.2,37.2,29.97,SE,124,9.2,9.2,96,0.00,-RA,,0.02,WeatherDisplay:10.37,2013-02-23 21:48:00,
2013-02-23 16:53:00,38.0,37.0,29.96,SE,127,8.1,8.1,96,0.00,-RA,,0.02,WeatherDisplay:10.37,2013-02-23 21:53:00,
2013-02-23 16:58:00,37.9,36.9,29.96,NE,44,11.5,11.5,96,0.00,-RA,,0.02,WeatherDisplay:10.37,2013-02-23 21:58:00,
2013-02-23 17:03:00,37.8,36.8,29.96,East,94,11.5,11.5,96,0.00,-RA,,0.02,WeatherDisplay:10.37,2013-02-23 22:03:00,
2013-02-23 17:08:00,37.6,36.6,29.96,East,90,13.8,13.8,96,0.00,-RA,,0.02,WeatherDisplay:10.37,2013-02-23 22:08:00,
2013-02-23 17:13:00,37.5,36.5,29.95,ESE,118,6.9,8.0,96,0.00,-RA,,0.02,WeatherDisplay:10.37,2013-02-23 22:13:00,
2013-02-23 17:18:00,37.4,36.4,29.95,SE,144,11.5,11.5,96,0.00,-RA,,0.02,WeatherDisplay:10.37,2013-02-23 22:18:00,
2013-02-23 17:23:00,37.3,36.3,29.95,ESE,107,4.6,4.6,96,0.00,-RA,,0.02,WeatherDisplay:10.37,2013-02-23 22:23:00,
2013-02-23 17:28:00,37.3,36.3,29.95,East,101,6.9,6.9,96,0.00,-RA,,0.02,WeatherDisplay:10.37,2013-02-23 22:28:00,
2013-02-23 17:33:00,37.1,36.1,29.95,ESE,113,7.0,7.0,96,0.00,-RA,,0.02,WeatherDisplay:10.37,2013-02-23 22:33:00,
2013-02-23 17:38:00,37.0,36.0,29.95,ESE,123,8.1,8.1,96,0.00,-RA,,0.02,WeatherDisplay:10.37,2013-02-23 22:38:00,
2013-02-23 17:43:00,36.9,35.9,29.95,ESE,113,12.0,12.0,96,0.00,-RA,,0.02,WeatherDisplay:10.37,2013-02-23 22:43:00,
2013-02-23 17:48:00,36.8,35.8,29.94,East,101,10.4,10.4,96,0.00,-RA,,0.02,WeatherDisplay:10.37,2013-02-23 22:48:00,
2013-02-23 17:53:00,36.6,35.6,29.94,East,82,8.1,8.1,96,0.00,-RA,,0.02,WeatherDisplay:10.37,2013-02-23 22:53:00,
2013-02-23 17:58:00,36.5,35.5,29.94,NE,55,7.0,7.0,96,0.00,-RA,,0.02,WeatherDisplay:10.37,2013-02-23 22:58:00,
2013-02-23 18:03:00,36.4,35.4,29.94,NE,39,7.0,7.0,96,0.00,-RA,,0.02,WeatherDisplay:10.37,2013-02-23 23:03:00,
2013-02-23 18:08:00,36.3,35.3,29.94,ENE,71,6.0,6.0,96,0.00,-RA,,0.02,WeatherDisplay:10.37,2013-02-23 23:08:00,
2013-02-23 18:13:00,36.2,35.2,29.94,ESE,102,8.1,8.1,96,0.00,-RA,,0.02,WeatherDisplay:10.37,2013-02-23 23:13:00,
2013-02-23 18:18:00,36.2,35.2,29.94,East,86,5.8,5.8,96,0.00,-RA,,0.02,WeatherDisplay:10.37,2013-02-23 23:18:00,
2013-02-23 18:23:00,36.1,35.1,29.94,East,88,4.6,4.6,96,0.00,-RA,,0.02,WeatherDisplay:10.37,2013-02-23 23:23:00,
2013-02-23 18:28:00,36.1,35.1,29.94,East,101,11.5,11.5,96,0.00,-RA,,0.02,WeatherDisplay:10.37,2013-02-23 23:28:00,
2013-02-23 18:33:00,36.1,35.1,29.94,NE,42,11.5,11.5,96,0.00,-RA,,0.02,WeatherDisplay:10.37,2013-02-23 23:33:00,
2013-02-23 18:38:00,36.0,35.0,29.94,East,101,6.0,6.0,96,0.00,-RA,,0.02,WeatherDisplay:10.37,2013-02-23 23:38:00,
2013-02-23 18:43:00,36.0,35.0,29.94,East,92,11.5,11.5,96,0.00,-RA,,0.02,WeatherDisplay:10.37,2013-02-23 23:43:00,
2013-02-23 18:48:00,36.0,35.0,29.94,ESE,117,8.1,8.1,96,0.00,-RA,,0.02,WeatherDisplay:10.37,2013-02-23 23:48:00,
2013-02-23 18:53:00,35.9,34.9,29.94,ENE,66,4.6,4.6,96,0.00,-RA,,0.02,WeatherDisplay:10.37,2013-02-23 23:53:00,
2013-02-23 18:58:00,35.9,34.9,29.94,East,88,9.2,9.2,96,0.00,-RA,,0.02,WeatherDisplay:10.37,2013-02-23 23:58:00,
2013-02-23 19:03:00,35.9,34.9,29.94,East,98,11.5,11.5,96,0.00,-RA,,0.02,WeatherDisplay:10.37,2013-02-24 00:03:00,
2013-02-23 19:08:00,35.9,34.9,29.94,East,80,5.8,5.8,96,0.00,-RA,,0.02,WeatherDisplay:10.37,2013-02-24 00:08:00,
2013-02-23 19:13:00,35.9,34.9,29.94,ESE,107,8.0,8.0,96,0.00,-RA,,0.02,WeatherDisplay:10.37,2013-02-24 00:13:00,
2013-02-23 19:18:00,35.9,34.9,29.93,East,96,5.8,5.8,96,0.00,-RA,,0.02,WeatherDisplay:10.37,2013-02-24 00:18:00,
2013-02-23 19:23:00,35.9,34.9,29.93,East,92,8.1,8.1,96,0.00,-RA,,0.02,WeatherDisplay:10.37,2013-02-24 00:23:00,
2013-02-23 19:28:00,35.8,34.8,29.92,ESE,123,6.9,7.7,96,0.00,-RA,,0.02,WeatherDisplay:10.37,2013-02-24 00:28:00,
2013-02-23 19:33:00,35.8,34.8,29.92,East,85,6.9,6.9,96,0.00,-RA,,0.02,WeatherDisplay:10.37,2013-02-24 00:33:00,
2013-02-23 19:38:00,35.8,34.8,29.92,East,86,5.8,5.8,96,0.00,-RA,,0.02,WeatherDisplay:10.37,2013-02-24 00:38:00,
2013-02-23 19:43:00,35.8,34.8,29.92,East,98,4.6,4.6,96,0.00,-RA,,0.02,WeatherDisplay:10.37,2013-02-24 00:43:00,
2013-02-23 19:48:00,35.7,34.7,29.92,East,84,11.5,11.5,96,0.00,-RA,,0.02,WeatherDisplay:10.37,2013-02-24 00:48:00,
2013-02-23 19:53:00,35.7,34.7,29.91,East,88,11.5,11.5,96,0.00,-RA,,0.02,WeatherDisplay:10.37,2013-02-24 00:53:00,
2013-02-23 19:58:00,35.7,34.7,29.91,East,80,9.2,9.2,96,0.00,-RA,,0.02,WeatherDisplay:10.37,2013-02-24 00:58:00,
2013-02-23 20:03:00,35.7,34.7,29.91,ENE,76,11.5,11.5,96,0.00,-RA,,0.02,WeatherDisplay:10.37,2013-02-24 01:03:00,
2013-02-23 20:08:00,35.7,34.7,29.91,ESE,107,7.0,7.0,96,0.00,-RA,,0.02,WeatherDisplay:10.37,2013-02-24 01:08:00,
2013-02-23 20:13:00,35.7,34.9,29.91,East,86,11.5,11.5,97,0.00,-RA,,0.02,WeatherDisplay:10.37,2013-02-24 01:13:00,
2013-02-23 20:18:00,35.8,35.0,29.91,ESE,102,6.9,6.9,97,0.00,-RA,,0.02,WeatherDisplay:10.37,2013-02-24 01:18:00,
2013-02-23 20:23:00,35.8,35.0,29.90,ENE,76,8.1,8.1,97,0.00,-RA,,0.02,WeatherDisplay:10.37,2013-02-24 01:23:00,
2013-02-23 20:28:00,35.8,35.0,29.90,ESE,117,4.6,4.6,97,0.00,-RA,,0.02,WeatherDisplay:10.37,2013-02-24 01:28:00,
2013-02-23 20:33:00,35.8,35.0,29.90,East,82,4.0,4.0,97,0.00,-RA,,0.02,WeatherDisplay:10.37,2013-02-24 01:33:00,
2013-02-23 20:38:00,35.8,35.0,29.90,NE,45,4.6,5.2,97,0.00,-RA,,0.02,WeatherDisplay:10.37,2013-02-24 01:38:00,
2013-02-23 20:43:00,35.9,35.1,29.90,NW,310,1.2,1.2,97,0.00,-RA,,0.02,WeatherDisplay:10.37,2013-02-24 01:43:00,
2013-02-23 20:48:00,35.9,35.1,29.90,NNW,337,3.5,3.5,97,0.00,-RA,,0.02,WeatherDisplay:10.37,2013-02-24 01:48:00,
2013-02-23 20:53:00,35.9,35.1,29.90,SSE,155,2.0,2.0,97,0.00,-RA,,0.02,WeatherDisplay:10.37,2013-02-24 01:53:00,
2013-02-23 20:58:00,35.9,35.1,29.90,SSE,155,0.0,0.0,97,0.00,-RA,,0.02,WeatherDisplay:10.37,2013-02-24 01:58:00,
2013-02-23 21:03:00,35.9,35.1,29.89,South,190,2.3,2.3,97,0.00,OVC,,0.02,WeatherDisplay:10.37,2013-02-24 02:03:00,
2013-02-23 21:08:00,36.0,35.2,29.89,NW,312,3.5,3.5,97,0.00,OVC,,0.02,WeatherDisplay:10.37,2013-02-24 02:08:00,
2013-02-23 21:13:00,36.0,35.2,29.89,NNE,18,2.3,2.3,97,0.00,OVC,,0.02,WeatherDisplay:10.37,2013-02-24 02:13:00,
2013-02-23 21:18:00,36.0,35.2,29.88,NNE,19,3.5,3.5,97,0.00,OVC,,0.02,WeatherDisplay:10.37,2013-02-24 02:18:00,
2013-02-23 21:23:00,36.1,35.3,29.88,NNE,19,3.0,3.0,97,0.00,OVC,,0.02,WeatherDisplay:10.37,2013-02-24 02:23:00,
2013-02-23 21:28:00,36.1,35.3,29.88,NNW,345,2.3,2.3,97,0.00,OVC,,0.02,WeatherDisplay:10.37,2013-02-24 02:28:00,
2013-02-23 21:33:00,36.1,35.3,29.88,NNW,345,0.0,0.0,97,0.00,OVC,,0.02,WeatherDisplay:10.37,2013-02-24 02:33:00,
2013-02-23 21:38:00,36.1,35.3,29.88,NNW,345,0.0,0.6,97,0.00,OVC,,0.02,WeatherDisplay:10.37,2013-02-24 02:38:00,
2013-02-23 21:43:00,36.1,35.3,29.87,NNW,345,2.3,0.0,97,0.00,OVC,,0.02,WeatherDisplay:10.37,2013-02-24 02:43:00,
2013-02-23 21:50:00,36.1,35.3,29.86,NNW,344,1.0,5.0,97,0.00,RA,,0.02,WeatherDisplay:10.37,2013-02-24 02:50:00,
2013-02-23 22:00:00,36.2,35.4,29.86,North,0,0.0,2.0,97,0.00,CLR,,0.02,WeatherDisplay:10.37,2013-02-24 03:00:00,
2013-02-23 22:10:00,36.1,35.3,29.85,North,0,1.0,4.0,97,0.00,CLR,,0.02,WeatherDisplay:10.37,2013-02-24 03:10:00,
2013-02-23 22:20:00,36.1,35.3,29.85,North,0,3.0,3.0,97,0.00,CLR,,0.02,WeatherDisplay:10.37,2013-02-24 03:20:00,
2013-02-23 22:30:00,36.1,35.3,29.85,North,0,0.0,2.0,97,0.00,CLR,,0.02,WeatherDisplay:10.37,2013-02-24 03:30:00,
2013-02-23 22:40:00,36.2,35.4,29.85,North,0,0.0,0.0,97,0.00,CLR,,0.02,WeatherDisplay:10.37,2013-02-24 03:40:00,
2013-02-23 22:50:00,36.2,35.4,29.84,North,0,0.0,3.0,97,0.00,CLR,,0.02,WeatherDisplay:10.37,2013-02-24 03:50:00,
2013-02-23 23:00:00,36.2,35.4,29.84,North,0,0.0,1.0,97,0.00,CLR,,0.02,WeatherDisplay:10.37,2013-02-24 04:00:00,
2013-02-23 23:10:00,36.1,35.3,29.83,North,0,0.0,3.0,97,0.01,RA,,0.03,WeatherDisplay:10.37,2013-02-24 04:10:00,
2013-02-23 23:20:00,36.1,35.3,29.82,North,10,0.0,4.0,97,0.00,CLR,,0.03,WeatherDisplay:10.37,2013-02-24 04:20:00,
2013-02-23 23:30:00,35.9,35.1,29.83,NNW,340,1.0,4.0,97,0.00,CLR,,0.03,WeatherDisplay:10.37,2013-02-24 04:30:00,
2013-02-23 23:40:00,35.7,34.9,29.82,NW,314,2.0,4.0,97,0.00,CLR,,0.03,WeatherDisplay:10.37,2013-02-24 04:40:00,
2013-02-23 23:50:00,35.6,34.8,29.82,NW,315,0.0,5.0,97,0.00,CLR,,0.03,WeatherDisplay:10.37,2013-02-24 04:50:00,